createdAt,value
2018-12-04T00:00:40.717Z,18.64
2018-12-04T00:01:40.935Z,18.61
2018-12-04T00:02:40.810Z,18.61
2018-12-04T00:03:41.076Z,18.63
2018-12-04T00:04:40.674Z,18.62
2018-12-04T00:05:40.825Z,18.61
2018-12-04T00:06:40.743Z,18.61
2018-12-04T00:07:40.858Z,18.59
2018-12-04T00:08:40.959Z,18.61
2018-12-04T00:09:41.841Z,18.59
2018-12-04T00:10:40.952Z,18.59
2018-12-04T00:11:40.781Z,18.58
2018-12-04T00:12:41.026Z,18.59
2018-12-04T00:13:40.764Z,18.59
2018-12-04T00:14:40.792Z,18.58
2018-12-04T00:15:40.675Z,18.57
2018-12-04T00:16:41.115Z,18.61
2018-12-04T00:17:41.019Z,18.58
2018-12-04T00:18:41.048Z,18.58
2018-12-04T00:19:41.165Z,18.59
2018-12-04T00:20:41.120Z,18.57
2018-12-04T00:21:41.020Z,18.58
2018-12-04T00:22:40.846Z,18.58
2018-12-04T00:23:40.630Z,18.58
2018-12-04T00:24:40.696Z,18.58
2018-12-04T00:25:40.765Z,18.58
2018-12-04T00:26:41.103Z,18.58
2018-12-04T00:27:40.830Z,18.56
2018-12-04T00:28:40.972Z,18.57
2018-12-04T00:29:41.139Z,18.57
2018-12-04T00:30:41.761Z,18.55
2018-12-04T00:31:41.034Z,18.55
2018-12-04T00:32:40.854Z,18.58
2018-12-04T00:33:40.961Z,18.57
2018-12-04T00:34:41.164Z,18.53
2018-12-04T00:35:40.840Z,18.55
2018-12-04T00:36:40.746Z,18.55
2018-12-04T00:37:41.165Z,18.55
2018-12-04T00:38:40.708Z,18.57
2018-12-04T00:39:41.094Z,18.56
2018-12-04T00:40:41.207Z,18.54
2018-12-04T00:41:40.852Z,18.54
2018-12-04T00:42:40.699Z,18.56
2018-12-04T00:43:40.726Z,18.55
2018-12-04T00:44:40.887Z,18.55
2018-12-04T00:45:41.066Z,18.54
2018-12-04T00:46:41.113Z,18.53
2018-12-04T00:47:41.375Z,18.55
2018-12-04T00:48:41.117Z,18.57
2018-12-04T00:49:40.746Z,18.54
2018-12-04T00:50:40.765Z,18.54
2018-12-04T00:51:41.035Z,18.56
2018-12-04T00:52:40.895Z,18.53
2018-12-04T00:53:41.143Z,18.54
2018-12-04T00:54:41.024Z,18.52
2018-12-04T00:55:41.098Z,18.52
2018-12-04T00:56:40.742Z,18.53
2018-12-04T00:57:41.222Z,18.51
2018-12-04T00:58:41.140Z,18.52
2018-12-04T00:59:40.659Z,18.53
2018-12-04T01:00:41.508Z,18.54
2018-12-04T01:01:40.760Z,18.53
2018-12-04T01:02:41.192Z,18.53
2018-12-04T01:03:40.738Z,18.53
2018-12-04T01:04:41.076Z,18.5
2018-12-04T01:05:40.757Z,18.52
2018-12-04T01:06:41.105Z,18.49
2018-12-04T01:07:41.419Z,18.5
2018-12-04T01:08:41.147Z,18.52
2018-12-04T01:09:40.796Z,18.51
2018-12-04T01:10:40.767Z,18.51
2018-12-04T01:11:40.917Z,18.52
2018-12-04T01:12:40.919Z,18.52
2018-12-04T01:13:41.380Z,18.5
2018-12-04T01:14:40.937Z,18.51
2018-12-04T01:15:40.964Z,18.49
2018-12-04T01:16:40.777Z,18.52
2018-12-04T01:17:41.083Z,18.5
2018-12-04T01:18:41.390Z,18.5
2018-12-04T01:19:41.116Z,18.5
2018-12-04T01:20:40.837Z,18.5
2018-12-04T01:21:41.103Z,18.49
2018-12-04T01:22:40.804Z,18.51
2018-12-04T01:23:40.949Z,18.5
2018-12-04T01:24:41.420Z,18.49
2018-12-04T01:25:41.139Z,18.49
2018-12-04T01:26:40.858Z,18.49
2018-12-04T01:27:41.044Z,18.49
2018-12-04T01:28:40.873Z,18.49
2018-12-04T01:29:41.164Z,18.48
2018-12-04T01:30:41.030Z,18.49
2018-12-04T01:31:41.589Z,18.49
2018-12-04T01:32:40.718Z,18.48
2018-12-04T01:33:40.984Z,18.49
2018-12-04T01:34:41.023Z,18.49
2018-12-04T01:35:40.840Z,18.48
2018-12-04T01:36:40.911Z,18.49
2018-12-04T01:37:40.700Z,18.48
2018-12-04T01:38:40.916Z,18.47
2018-12-04T01:39:40.709Z,18.46
2018-12-04T01:40:41.137Z,18.48
2018-12-04T01:41:40.675Z,18.48
2018-12-04T01:42:40.791Z,18.48
2018-12-04T01:43:40.867Z,18.47
2018-12-04T01:44:40.701Z,18.47
2018-12-04T01:45:40.703Z,18.48
2018-12-04T01:46:40.795Z,18.47
2018-12-04T01:47:40.875Z,18.47
2018-12-04T01:48:40.735Z,18.47
2018-12-04T01:49:40.820Z,18.44
2018-12-04T01:50:40.715Z,18.46
2018-12-04T01:51:40.848Z,18.46
2018-12-04T01:52:40.994Z,18.46
2018-12-04T01:53:40.721Z,18.46
2018-12-04T01:54:40.816Z,18.47
2018-12-04T01:55:40.665Z,18.44
2018-12-04T01:56:40.887Z,18.47
2018-12-04T01:57:41.142Z,18.47
2018-12-04T01:58:40.887Z,18.44
2018-12-04T01:59:40.967Z,18.47
2018-12-04T02:00:41.069Z,18.44
2018-12-04T02:01:40.830Z,18.44
2018-12-04T02:02:40.711Z,18.47
2018-12-04T02:03:40.937Z,18.44
2018-12-04T02:04:40.698Z,18.46
2018-12-04T02:05:40.793Z,18.44
2018-12-04T02:06:40.985Z,18.44
2018-12-04T02:07:40.733Z,18.44
2018-12-04T02:08:41.239Z,18.46
2018-12-04T02:09:40.920Z,18.44
2018-12-04T02:10:40.595Z,18.44
2018-12-04T02:11:40.961Z,18.42
2018-12-04T02:12:40.950Z,18.42
2018-12-04T02:13:41.024Z,18.43
2018-12-04T02:14:41.071Z,18.43
2018-12-04T02:15:41.064Z,18.42
2018-12-04T02:16:41.188Z,18.44
2018-12-04T02:17:41.085Z,18.42
2018-12-04T02:18:40.883Z,18.43
2018-12-04T02:19:40.807Z,18.41
2018-12-04T02:20:40.808Z,18.42
2018-12-04T02:21:41.329Z,18.42
2018-12-04T02:22:40.953Z,18.43
2018-12-04T02:23:40.802Z,18.42
2018-12-04T02:24:41.064Z,18.42
2018-12-04T02:25:41.276Z,18.42
2018-12-04T02:26:41.586Z,18.39
2018-12-04T02:27:40.683Z,18.42
2018-12-04T02:28:40.846Z,18.41
2018-12-04T02:29:41.515Z,18.4
2018-12-04T02:30:40.891Z,18.41
2018-12-04T02:31:40.696Z,18.4
2018-12-04T02:32:41.392Z,18.41
2018-12-04T02:33:40.700Z,18.41
2018-12-04T02:34:41.006Z,18.4
2018-12-04T02:35:40.956Z,18.4
2018-12-04T02:36:41.286Z,18.41
2018-12-04T02:37:40.866Z,18.4
2018-12-04T02:38:41.956Z,18.39
2018-12-04T02:39:40.947Z,18.4
2018-12-04T02:40:40.983Z,18.4
2018-12-04T02:41:40.963Z,18.39
2018-12-04T02:42:40.887Z,18.38
2018-12-04T02:43:40.837Z,18.39
2018-12-04T02:44:40.602Z,18.39
2018-12-04T02:45:40.987Z,18.39
2018-12-04T02:46:40.566Z,18.4
2018-12-04T02:47:40.739Z,18.38
2018-12-04T02:48:40.810Z,18.4
2018-12-04T02:49:41.023Z,18.38
2018-12-04T02:50:41.038Z,18.39
2018-12-04T02:51:41.023Z,18.38
2018-12-04T02:52:40.892Z,18.4
2018-12-04T02:53:40.722Z,18.39
2018-12-04T02:54:41.197Z,18.39
2018-12-04T02:55:40.803Z,18.38
2018-12-04T02:56:40.742Z,18.37
2018-12-04T02:57:41.855Z,18.38
2018-12-04T02:58:40.812Z,18.38
2018-12-04T02:59:40.766Z,18.39
2018-12-04T03:00:40.796Z,18.37
2018-12-04T03:01:40.919Z,18.39
2018-12-04T03:02:40.826Z,18.36
2018-12-04T03:03:40.703Z,18.37
2018-12-04T03:04:40.729Z,18.38
2018-12-04T03:05:40.618Z,18.37
2018-12-04T03:06:40.730Z,18.37
2018-12-04T03:07:41.085Z,18.38
2018-12-04T03:08:40.908Z,18.36
2018-12-04T03:09:40.959Z,18.36
2018-12-04T03:10:40.830Z,18.37
2018-12-04T03:11:40.661Z,18.33
2018-12-04T03:12:40.853Z,18.37
2018-12-04T03:13:40.918Z,18.37
2018-12-04T03:14:40.886Z,18.37
2018-12-04T03:15:40.813Z,18.38
2018-12-04T03:16:40.756Z,18.37
2018-12-04T03:17:40.804Z,18.37
2018-12-04T03:18:40.897Z,18.37
2018-12-04T03:19:40.964Z,18.37
2018-12-04T03:20:41.028Z,18.37
2018-12-04T03:21:40.729Z,18.38
2018-12-04T03:22:40.742Z,18.36
2018-12-04T03:23:40.744Z,18.37
2018-12-04T03:24:40.695Z,18.37
2018-12-04T03:25:40.670Z,18.35
2018-12-04T03:26:40.695Z,18.37
2018-12-04T03:27:40.859Z,18.37
2018-12-04T03:28:40.777Z,18.35
2018-12-04T03:29:40.746Z,18.35
2018-12-04T03:30:40.852Z,18.36
2018-12-04T03:31:40.704Z,18.36
2018-12-04T03:32:40.681Z,18.36
2018-12-04T03:33:40.761Z,18.34
2018-12-04T03:34:40.707Z,18.34
2018-12-04T03:35:41.051Z,18.36
2018-12-04T03:36:41.136Z,18.34
2018-12-04T03:37:40.787Z,18.33
2018-12-04T03:38:40.714Z,18.34
2018-12-04T03:39:40.776Z,18.34
2018-12-04T03:40:40.880Z,18.34
2018-12-04T03:41:41.241Z,18.34
2018-12-04T03:42:40.886Z,18.34
2018-12-04T03:43:40.733Z,18.34
2018-12-04T03:44:40.676Z,18.34
2018-12-04T03:45:40.698Z,18.33
2018-12-04T03:46:40.844Z,18.34
2018-12-04T03:47:40.812Z,18.34
2018-12-04T03:48:40.814Z,18.34
2018-12-04T03:49:40.745Z,18.33
2018-12-04T03:50:40.853Z,18.34
2018-12-04T03:51:40.748Z,18.33
2018-12-04T03:52:41.023Z,18.33
2018-12-04T03:53:40.615Z,18.32
2018-12-04T03:54:41.735Z,18.33
2018-12-04T03:55:40.952Z,18.32
2018-12-04T03:56:41.034Z,18.33
2018-12-04T03:57:40.762Z,18.33
2018-12-04T03:58:41.142Z,18.33
2018-12-04T03:59:40.848Z,18.33
2018-12-04T04:00:41.120Z,18.33
2018-12-04T04:01:40.827Z,18.33
2018-12-04T04:02:40.669Z,18.32
2018-12-04T04:03:40.715Z,18.33
2018-12-04T04:04:40.988Z,18.33
2018-12-04T04:05:40.761Z,18.3
2018-12-04T04:06:41.657Z,18.29
2018-12-04T04:07:40.986Z,18.33
2018-12-04T04:08:40.761Z,18.3
2018-12-04T04:09:40.669Z,18.32
2018-12-04T04:10:40.739Z,18.33
2018-12-04T04:11:41.186Z,18.32
2018-12-04T04:12:41.623Z,18.3
2018-12-04T04:13:40.888Z,18.32
2018-12-04T04:14:40.901Z,18.3
2018-12-04T04:15:41.332Z,18.33
2018-12-04T04:16:40.832Z,18.29
2018-12-04T04:17:40.494Z,18.33
2018-12-04T04:18:41.545Z,18.29
2018-12-04T04:19:41.187Z,18.28
2018-12-04T04:20:40.701Z,18.3
2018-12-04T04:21:40.946Z,18.28
2018-12-04T04:22:40.861Z,18.29
2018-12-04T04:23:40.855Z,18.32
2018-12-04T04:24:40.878Z,18.32
2018-12-04T04:25:40.731Z,18.29
2018-12-04T04:26:40.708Z,18.28
2018-12-04T04:27:40.927Z,18.3
2018-12-04T04:28:40.986Z,18.27
2018-12-04T04:29:40.609Z,18.29
2018-12-04T04:30:41.028Z,18.29
2018-12-04T04:31:40.936Z,18.28
2018-12-04T04:32:40.669Z,18.29
2018-12-04T04:33:40.738Z,18.28
2018-12-04T04:34:40.638Z,18.28
2018-12-04T04:35:40.764Z,18.28
2018-12-04T04:36:40.622Z,18.28
2018-12-04T04:37:40.802Z,18.27
2018-12-04T04:38:40.854Z,18.29
2018-12-04T04:39:40.887Z,18.29
2018-12-04T04:40:41.132Z,18.28
2018-12-04T04:41:40.895Z,18.27
2018-12-04T04:42:40.845Z,18.3
2018-12-04T04:43:40.692Z,18.28
2018-12-04T04:44:40.538Z,18.29
2018-12-04T04:45:40.958Z,18.29
2018-12-04T04:46:40.744Z,18.29
2018-12-04T04:47:40.776Z,18.29
2018-12-04T04:48:40.769Z,18.33
2018-12-04T04:49:40.869Z,18.3
2018-12-04T04:50:40.754Z,18.3
2018-12-04T04:51:40.742Z,18.33
2018-12-04T04:52:40.610Z,18.33
2018-12-04T04:53:40.496Z,18.33
2018-12-04T04:54:40.694Z,18.33
2018-12-04T04:55:40.993Z,18.36
2018-12-04T04:56:40.468Z,18.35
2018-12-04T04:57:40.785Z,18.34
2018-12-04T04:58:40.820Z,18.37
2018-12-04T04:59:40.868Z,18.37
2018-12-04T05:00:40.768Z,18.38
2018-12-04T05:01:40.698Z,18.38
2018-12-04T05:02:40.673Z,18.39
2018-12-04T05:03:40.662Z,18.41
2018-12-04T05:04:40.730Z,18.41
2018-12-04T05:05:40.667Z,18.4
2018-12-04T05:06:40.704Z,18.42
2018-12-04T05:07:40.980Z,18.42
2018-12-04T05:08:40.899Z,18.46
2018-12-04T05:09:40.687Z,18.47
2018-12-04T05:10:40.701Z,18.47
2018-12-04T05:11:40.767Z,18.49
2018-12-04T05:12:41.052Z,18.5
2018-12-04T05:13:40.634Z,18.51
2018-12-04T05:14:40.855Z,18.51
2018-12-04T05:15:40.927Z,18.52
2018-12-04T05:16:40.937Z,18.53
2018-12-04T05:17:40.569Z,18.55
2018-12-04T05:18:40.792Z,18.56
2018-12-04T05:19:40.988Z,18.57
2018-12-04T05:20:41.080Z,18.58
2018-12-04T05:21:40.843Z,18.59
2018-12-04T05:22:40.814Z,18.61
2018-12-04T05:23:41.095Z,18.62
2018-12-04T05:24:40.708Z,18.61
2018-12-04T05:25:40.944Z,18.65
2018-12-04T05:26:40.885Z,18.63
2018-12-04T05:27:41.029Z,18.65
2018-12-04T05:28:40.928Z,18.66
2018-12-04T05:29:40.827Z,18.68
2018-12-04T05:30:40.876Z,18.68
2018-12-04T05:31:40.997Z,18.7
2018-12-04T05:32:40.779Z,18.69
2018-12-04T05:33:40.670Z,18.69
2018-12-04T05:34:40.911Z,18.71
2018-12-04T05:35:41.133Z,18.69
2018-12-04T05:36:40.746Z,18.74
2018-12-04T05:37:40.978Z,18.73
2018-12-04T05:38:40.740Z,18.76
2018-12-04T05:39:40.993Z,18.72
2018-12-04T05:40:40.595Z,18.74
2018-12-04T05:41:40.965Z,18.76
2018-12-04T05:42:41.022Z,18.74
2018-12-04T05:43:41.137Z,18.74
2018-12-04T05:44:40.622Z,18.76
2018-12-04T05:45:40.939Z,18.77
2018-12-04T05:46:40.503Z,18.77
2018-12-04T05:47:40.527Z,18.78
2018-12-04T05:48:40.735Z,18.8
2018-12-04T05:49:40.829Z,18.77
2018-12-04T05:50:40.878Z,18.78
2018-12-04T05:51:41.102Z,18.81
2018-12-04T05:52:40.790Z,18.81
2018-12-04T05:53:40.703Z,18.79
2018-12-04T05:54:40.913Z,18.79
2018-12-04T05:55:40.924Z,18.8
2018-12-04T05:56:40.502Z,18.81
2018-12-04T05:57:40.857Z,18.81
2018-12-04T05:58:41.222Z,18.81
2018-12-04T05:59:40.692Z,18.81
2018-12-04T06:00:40.850Z,18.81
2018-12-04T06:01:41.117Z,18.82
2018-12-04T06:02:40.713Z,18.82
2018-12-04T06:03:41.066Z,18.82
2018-12-04T06:04:40.768Z,18.82
2018-12-04T06:05:40.790Z,18.81
2018-12-04T06:06:40.832Z,18.81
2018-12-04T06:07:40.585Z,18.82
2018-12-04T06:08:40.744Z,18.81
2018-12-04T06:09:41.165Z,18.81
2018-12-04T06:10:40.681Z,18.81
2018-12-04T06:11:40.828Z,18.83
2018-12-04T06:12:40.966Z,18.82
2018-12-04T06:13:40.719Z,18.82
2018-12-04T06:14:40.594Z,18.84
2018-12-04T06:15:40.953Z,18.82
2018-12-04T06:16:41.162Z,18.83
2018-12-04T06:17:41.187Z,18.82
2018-12-04T06:18:41.011Z,18.84
2018-12-04T06:19:40.689Z,18.82
2018-12-04T06:20:40.547Z,18.82
2018-12-04T06:21:40.661Z,18.84
2018-12-04T06:22:40.803Z,18.82
2018-12-04T06:23:41.114Z,18.84
2018-12-04T06:24:41.006Z,18.83
2018-12-04T06:25:40.652Z,18.82
2018-12-04T06:26:41.004Z,18.82
2018-12-04T06:27:40.732Z,18.82
2018-12-04T06:28:40.641Z,18.8
2018-12-04T06:29:40.672Z,18.82
2018-12-04T06:30:40.757Z,18.82
2018-12-04T06:31:40.793Z,18.82
2018-12-04T06:32:40.557Z,18.82
2018-12-04T06:33:40.511Z,18.82
2018-12-04T06:34:40.802Z,18.82
2018-12-04T06:35:40.707Z,18.82
2018-12-04T06:36:40.801Z,18.82
2018-12-04T06:37:40.775Z,18.82
2018-12-04T06:38:40.658Z,18.81
2018-12-04T06:39:40.668Z,18.83
2018-12-04T06:40:40.739Z,18.82
2018-12-04T06:41:40.732Z,18.82
2018-12-04T06:42:40.750Z,18.82
2018-12-04T06:43:40.725Z,18.81
2018-12-04T06:44:40.670Z,18.82
2018-12-04T06:45:40.688Z,18.81
2018-12-04T06:46:40.769Z,18.81
2018-12-04T06:47:40.718Z,18.82
2018-12-04T06:48:40.877Z,18.82
2018-12-04T06:49:40.687Z,18.81
2018-12-04T06:50:41.015Z,18.81
2018-12-04T06:51:40.683Z,18.81
2018-12-04T06:52:41.021Z,18.82
2018-12-04T06:53:41.090Z,18.83
2018-12-04T06:54:40.736Z,18.82
2018-12-04T06:55:41.084Z,18.81
2018-12-04T06:56:40.666Z,18.79
2018-12-04T06:57:41.045Z,18.79
2018-12-04T06:58:40.966Z,18.81
2018-12-04T06:59:40.401Z,18.8
2018-12-04T07:00:40.793Z,18.81
2018-12-04T07:01:40.864Z,18.78
2018-12-04T07:02:40.797Z,18.8
2018-12-04T07:03:40.991Z,18.8
2018-12-04T07:04:40.798Z,18.8
2018-12-04T07:05:40.883Z,18.8
2018-12-04T07:06:40.769Z,18.79
2018-12-04T07:07:40.723Z,18.79
2018-12-04T07:08:40.962Z,18.78
2018-12-04T07:09:40.724Z,18.8
2018-12-04T07:10:40.671Z,18.79
2018-12-04T07:11:40.471Z,18.77
2018-12-04T07:12:41.041Z,18.79
2018-12-04T07:13:41.284Z,18.77
2018-12-04T07:14:40.882Z,18.79
2018-12-04T07:15:40.676Z,18.79
2018-12-04T07:16:40.563Z,18.78
2018-12-04T07:17:41.212Z,18.78
2018-12-04T07:18:40.798Z,18.78
2018-12-04T07:19:40.633Z,18.79
2018-12-04T07:20:41.404Z,18.78
2018-12-04T07:21:41.486Z,18.78
2018-12-04T07:22:40.855Z,18.78
2018-12-04T07:23:41.133Z,18.77
2018-12-04T07:24:40.931Z,18.79
2018-12-04T07:25:40.589Z,18.77
2018-12-04T07:26:40.635Z,18.78
2018-12-04T07:27:40.748Z,18.78
2018-12-04T07:28:40.978Z,18.77
2018-12-04T07:29:40.829Z,18.78
2018-12-04T07:30:41.118Z,18.78
2018-12-04T07:31:40.899Z,18.76
2018-12-04T07:32:40.664Z,18.79
2018-12-04T07:33:40.812Z,18.77
2018-12-04T07:34:40.732Z,18.77
2018-12-04T07:35:40.937Z,18.76
2018-12-04T07:36:40.832Z,18.77
2018-12-04T07:37:40.541Z,18.77
2018-12-04T07:38:40.833Z,18.77
2018-12-04T07:39:40.957Z,18.74
2018-12-04T07:40:40.675Z,18.77
2018-12-04T07:41:40.959Z,18.78
2018-12-04T07:42:40.891Z,18.76
2018-12-04T07:43:40.818Z,18.77
2018-12-04T07:44:40.480Z,18.76
2018-12-04T07:45:41.158Z,18.77
2018-12-04T07:46:40.899Z,18.77
2018-12-04T07:47:41.001Z,18.77
2018-12-04T07:48:40.699Z,18.79
2018-12-04T07:49:40.944Z,18.77
2018-12-04T07:50:41.022Z,18.76
2018-12-04T07:51:41.031Z,18.77
2018-12-04T07:52:40.655Z,18.79
2018-12-04T07:53:40.684Z,18.74
2018-12-04T07:54:40.648Z,18.78
2018-12-04T07:55:40.582Z,18.77
2018-12-04T07:56:40.530Z,18.8
2018-12-04T07:57:40.620Z,18.78
2018-12-04T07:58:41.001Z,18.79
2018-12-04T07:59:40.735Z,18.79
2018-12-04T08:00:40.694Z,18.78
2018-12-04T08:01:40.991Z,18.8
2018-12-04T08:02:40.681Z,18.79
2018-12-04T08:03:40.681Z,18.81
2018-12-04T08:04:41.243Z,18.79
2018-12-04T08:05:40.882Z,18.8
2018-12-04T08:06:40.686Z,18.8
2018-12-04T08:07:40.675Z,18.81
2018-12-04T08:08:40.689Z,18.81
2018-12-04T08:09:40.659Z,18.79
2018-12-04T08:10:40.665Z,18.81
2018-12-04T08:11:40.712Z,18.8
2018-12-04T08:12:40.987Z,18.79
2018-12-04T08:13:40.591Z,18.8
2018-12-04T08:14:41.043Z,18.8
2018-12-04T08:15:40.639Z,18.8
2018-12-04T08:16:40.472Z,18.82
2018-12-04T08:17:40.837Z,18.82
2018-12-04T08:18:40.381Z,18.81
2018-12-04T08:19:40.739Z,18.81
2018-12-04T08:20:40.799Z,18.81
2018-12-04T08:21:40.832Z,18.82
2018-12-04T08:22:40.452Z,18.81
2018-12-04T08:23:40.684Z,18.81
2018-12-04T08:24:40.689Z,18.82
2018-12-04T08:25:40.441Z,18.82
2018-12-04T08:26:41.170Z,18.81
2018-12-04T08:27:40.951Z,18.83
2018-12-04T08:28:41.396Z,18.82
2018-12-04T08:29:40.805Z,18.84
2018-12-04T08:30:40.703Z,18.83
2018-12-04T08:31:40.758Z,18.82
2018-12-04T08:32:40.624Z,18.83
2018-12-04T08:33:40.773Z,18.82
2018-12-04T08:34:40.735Z,18.82
2018-12-04T08:35:40.670Z,18.82
2018-12-04T08:36:40.698Z,18.82
2018-12-04T08:37:40.982Z,18.83
2018-12-04T08:38:41.373Z,18.82
2018-12-04T08:39:40.877Z,18.81
2018-12-04T08:40:40.408Z,18.83
2018-12-04T08:41:40.904Z,18.83
2018-12-04T08:42:41.025Z,18.82
2018-12-04T08:43:40.790Z,18.84
2018-12-04T08:44:41.577Z,18.84
2018-12-04T08:45:40.465Z,18.84
2018-12-04T08:46:41.118Z,18.83
2018-12-04T08:47:40.951Z,18.84
2018-12-04T08:48:40.651Z,18.83
2018-12-04T08:49:40.761Z,18.83
2018-12-04T08:50:40.829Z,18.82
2018-12-04T08:51:40.656Z,18.83
2018-12-04T08:52:40.759Z,18.83
2018-12-04T08:53:40.757Z,18.84
2018-12-04T08:54:40.904Z,18.82
2018-12-04T08:55:40.804Z,18.82
2018-12-04T08:56:40.666Z,18.83
2018-12-04T08:57:41.097Z,18.83
2018-12-04T08:58:40.378Z,18.82
2018-12-04T08:59:40.668Z,18.82
2018-12-04T09:00:40.912Z,18.85
2018-12-04T09:01:40.448Z,18.84
2018-12-04T09:02:40.655Z,18.82
2018-12-04T09:03:40.741Z,18.84
2018-12-04T09:04:40.498Z,18.82
2018-12-04T09:05:41.216Z,18.84
2018-12-04T09:06:40.953Z,18.84
2018-12-04T09:07:40.466Z,18.83
2018-12-04T09:08:40.852Z,18.82
2018-12-04T09:09:40.681Z,18.81
2018-12-04T09:10:40.877Z,18.82
2018-12-04T09:11:40.798Z,18.83
2018-12-04T09:12:40.439Z,18.83
2018-12-04T09:13:40.596Z,18.83
2018-12-04T09:14:40.506Z,18.82
2018-12-04T09:15:41.220Z,18.82
2018-12-04T09:16:40.505Z,18.82
2018-12-04T09:17:40.945Z,18.83
2018-12-04T09:18:41.466Z,18.82
2018-12-04T09:19:40.549Z,18.81
2018-12-04T09:20:41.250Z,18.81
2018-12-04T09:21:41.039Z,18.83
2018-12-04T09:22:40.758Z,18.83
2018-12-04T09:23:41.150Z,18.83
2018-12-04T09:24:41.130Z,18.8
2018-12-04T09:25:40.922Z,18.82
2018-12-04T09:26:40.811Z,18.8
2018-12-04T09:27:41.264Z,18.82
2018-12-04T09:28:41.044Z,18.8
2018-12-04T09:29:41.257Z,18.82
2018-12-04T09:30:40.976Z,18.81
2018-12-04T09:31:40.950Z,18.81
2018-12-04T09:32:40.771Z,18.83
2018-12-04T09:33:41.242Z,18.8
2018-12-04T09:34:40.477Z,18.81
2018-12-04T09:35:40.850Z,18.82
2018-12-04T09:36:40.751Z,18.81
2018-12-04T09:37:40.983Z,18.81
2018-12-04T09:38:40.938Z,18.8
2018-12-04T09:39:40.691Z,18.8
2018-12-04T09:40:40.823Z,18.79
2018-12-04T09:41:41.264Z,18.8
2018-12-04T09:42:40.845Z,18.81
2018-12-04T09:43:40.428Z,18.82
2018-12-04T09:44:40.723Z,18.8
2018-12-04T09:45:40.748Z,18.82
2018-12-04T09:46:40.673Z,18.8
2018-12-04T09:47:40.430Z,18.81
2018-12-04T09:48:40.674Z,18.8
2018-12-04T09:49:40.477Z,18.79
2018-12-04T09:50:40.779Z,18.78
2018-12-04T09:51:40.478Z,18.8
2018-12-04T09:52:40.470Z,18.81
2018-12-04T09:53:40.722Z,18.81
2018-12-04T09:54:40.740Z,18.82
2018-12-04T09:55:40.659Z,18.8
2018-12-04T09:56:40.794Z,18.8
2018-12-04T09:57:40.675Z,18.8
2018-12-04T09:58:40.408Z,18.8
2018-12-04T09:59:40.950Z,18.8
2018-12-04T10:00:40.643Z,18.81
2018-12-04T10:01:40.511Z,18.8
2018-12-04T10:02:40.731Z,18.79
2018-12-04T10:03:40.759Z,18.8
2018-12-04T10:04:40.879Z,18.78
2018-12-04T10:05:40.473Z,18.81
2018-12-04T10:06:40.795Z,18.8
2018-12-04T10:07:40.498Z,18.79
2018-12-04T10:08:40.814Z,18.8
2018-12-04T10:09:40.741Z,18.79
2018-12-04T10:10:40.512Z,18.8
2018-12-04T10:11:40.822Z,18.79
2018-12-04T10:12:40.765Z,18.79
2018-12-04T10:13:40.682Z,18.8
2018-12-04T10:14:40.518Z,18.79
2018-12-04T10:15:41.004Z,18.8
2018-12-04T10:16:43.492Z,18.8
2018-12-04T10:17:40.733Z,18.8
2018-12-04T10:18:40.860Z,18.77
2018-12-04T10:19:40.883Z,18.81
2018-12-04T10:20:40.652Z,18.8
2018-12-04T10:21:40.616Z,18.79
2018-12-04T10:22:40.826Z,18.8
2018-12-04T10:23:40.670Z,18.79
2018-12-04T10:24:40.617Z,18.8
2018-12-04T10:25:41.336Z,18.77
2018-12-04T10:26:40.760Z,18.79
2018-12-04T10:27:40.847Z,18.79
2018-12-04T10:28:41.489Z,18.77
2018-12-04T10:29:40.899Z,18.76
2018-12-04T10:30:40.796Z,18.78
2018-12-04T10:31:40.570Z,18.8
2018-12-04T10:32:40.709Z,18.78
2018-12-04T10:33:40.473Z,18.79
2018-12-04T10:34:41.015Z,18.77
2018-12-04T10:35:40.510Z,18.79
2018-12-04T10:36:40.671Z,18.8
2018-12-04T10:37:40.458Z,18.81
2018-12-04T10:38:40.534Z,18.81
2018-12-04T10:39:40.688Z,18.81
2018-12-04T10:40:40.460Z,18.8
2018-12-04T10:41:40.782Z,18.8
2018-12-04T10:42:40.449Z,18.82
2018-12-04T10:43:41.116Z,18.79
2018-12-04T10:44:40.716Z,18.81
2018-12-04T10:45:40.926Z,18.81
2018-12-04T10:46:41.123Z,18.81
2018-12-04T10:47:40.605Z,18.83
2018-12-04T10:48:40.922Z,18.82
2018-12-04T10:49:40.683Z,18.82
2018-12-04T10:50:40.985Z,18.82
2018-12-04T10:51:40.362Z,18.83
2018-12-04T10:52:41.151Z,18.82
2018-12-04T10:53:40.447Z,18.83
2018-12-04T10:54:40.996Z,18.82
2018-12-04T10:55:40.431Z,18.82
2018-12-04T10:56:40.789Z,18.82
2018-12-04T10:57:40.900Z,18.82
2018-12-04T10:58:40.560Z,18.84
2018-12-04T10:59:40.690Z,18.84
2018-12-04T11:00:40.936Z,18.82
2018-12-04T11:01:41.075Z,18.82
2018-12-04T11:02:40.833Z,18.84
2018-12-04T11:03:40.985Z,18.83
2018-12-04T11:04:40.746Z,18.83
2018-12-04T11:05:40.381Z,18.82
2018-12-04T11:06:40.698Z,18.82
2018-12-04T11:07:40.582Z,18.82
2018-12-04T11:08:40.573Z,18.82
2018-12-04T11:09:40.667Z,18.84
2018-12-04T11:10:40.547Z,18.82
2018-12-04T11:11:40.410Z,18.82
2018-12-04T11:12:40.924Z,18.82
2018-12-04T11:13:40.371Z,18.81
2018-12-04T11:14:40.391Z,18.82
2018-12-04T11:15:40.795Z,18.82
2018-12-04T11:16:40.541Z,18.81
2018-12-04T11:17:41.370Z,18.82
2018-12-04T11:18:40.849Z,18.83
2018-12-04T11:19:41.054Z,18.82
2018-12-04T11:20:40.816Z,18.81
2018-12-04T11:21:40.665Z,18.81
2018-12-04T11:22:40.402Z,18.82
2018-12-04T11:23:40.485Z,18.79
2018-12-04T11:24:41.059Z,18.82
2018-12-04T11:25:40.475Z,18.8
2018-12-04T11:26:40.807Z,18.82
2018-12-04T11:27:40.444Z,18.81
2018-12-04T11:28:41.315Z,18.8
2018-12-04T11:29:40.525Z,18.81
2018-12-04T11:30:40.737Z,18.82
2018-12-04T11:31:40.700Z,18.83
2018-12-04T11:32:40.968Z,18.82
2018-12-04T11:33:40.553Z,18.82
2018-12-04T11:34:40.754Z,18.81
2018-12-04T11:35:40.785Z,18.8
2018-12-04T11:36:40.844Z,18.81
2018-12-04T11:37:40.385Z,18.79
2018-12-04T11:38:41.032Z,18.81
2018-12-04T11:39:40.808Z,18.82
2018-12-04T11:40:40.986Z,18.81
2018-12-04T11:41:40.602Z,18.81
2018-12-04T11:42:40.735Z,18.8
2018-12-04T11:43:40.543Z,18.82
2018-12-04T11:44:40.781Z,18.8
2018-12-04T11:45:40.378Z,18.79
2018-12-04T11:46:40.831Z,18.8
2018-12-04T11:47:40.931Z,18.82
2018-12-04T11:48:40.889Z,18.81
2018-12-04T11:49:40.669Z,18.79
2018-12-04T11:50:41.190Z,18.8
2018-12-04T11:51:40.550Z,18.79
2018-12-04T11:52:40.509Z,18.82
2018-12-04T11:53:40.575Z,18.79
2018-12-04T11:54:40.361Z,18.81
2018-12-04T11:55:41.206Z,18.81
2018-12-04T11:56:40.863Z,18.81
2018-12-04T11:57:40.495Z,18.8
2018-12-04T11:58:40.932Z,18.79
2018-12-04T11:59:41.360Z,18.8
2018-12-04T12:00:40.650Z,18.8
2018-12-04T12:01:40.545Z,18.81
2018-12-04T12:02:40.459Z,18.81
2018-12-04T12:03:40.752Z,18.82
2018-12-04T12:04:40.913Z,18.81
2018-12-04T12:05:40.590Z,18.81
2018-12-04T12:06:40.804Z,18.82
2018-12-04T12:07:40.899Z,18.81
2018-12-04T12:08:40.807Z,18.83
2018-12-04T12:09:40.741Z,18.81
2018-12-04T12:10:40.858Z,18.81
2018-12-04T12:11:40.764Z,18.82
2018-12-04T12:12:41.091Z,18.8
2018-12-04T12:13:40.487Z,18.8
2018-12-04T12:14:40.650Z,18.81
2018-12-04T12:15:40.504Z,18.82
2018-12-04T12:16:40.465Z,18.8
2018-12-04T12:17:40.880Z,18.8
2018-12-04T12:18:40.351Z,18.82
2018-12-04T12:19:40.827Z,18.81
2018-12-04T12:20:41.213Z,18.82
2018-12-04T12:21:40.628Z,18.79
2018-12-04T12:22:40.695Z,18.82
2018-12-04T12:23:40.534Z,18.81
2018-12-04T12:24:40.815Z,18.82
2018-12-04T12:25:40.939Z,18.81
2018-12-04T12:26:40.513Z,18.81
2018-12-04T12:27:40.421Z,18.81
2018-12-04T12:28:40.649Z,18.81
2018-12-04T12:29:40.542Z,18.81
2018-12-04T12:30:40.695Z,18.82
2018-12-04T12:31:40.568Z,18.83
2018-12-04T12:32:40.527Z,18.8
2018-12-04T12:33:40.925Z,18.82
2018-12-04T12:34:40.695Z,18.81
2018-12-04T12:35:40.815Z,18.81
2018-12-04T12:36:40.470Z,18.83
2018-12-04T12:37:40.935Z,18.8
2018-12-04T12:38:40.308Z,18.82
2018-12-04T12:39:41.430Z,18.8
2018-12-04T12:40:40.743Z,18.81
2018-12-04T12:41:40.866Z,18.8
2018-12-04T12:42:40.426Z,18.81
2018-12-04T12:43:40.808Z,18.81
2018-12-04T12:44:41.090Z,18.82
2018-12-04T12:45:40.355Z,18.81
2018-12-04T12:46:40.493Z,18.8
2018-12-04T12:47:40.524Z,18.81
2018-12-04T12:48:40.830Z,18.8
2018-12-04T12:49:40.793Z,18.82
2018-12-04T12:50:40.922Z,18.79
2018-12-04T12:51:40.504Z,18.82
2018-12-04T12:52:40.507Z,18.82
2018-12-04T12:53:40.714Z,18.82
2018-12-04T12:54:41.046Z,18.81
2018-12-04T12:55:40.391Z,18.81